sensor_id;sensor_type;location;lat;lon;timestamp;pressure;altitude;pressure_sealevel;temperature;humidity
43161;BME280;40968;52.342;5.528;2023-04-27T00:01:45;102155.28;;;5.23;64.81
43161;BME280;40968;52.342;5.528;2023-04-27T00:04:11;102141.59;;;5.05;64.90
43161;BME280;40968;52.342;5.528;2023-04-27T00:06:39;102025.28;;;4.27;64.62
43161;BME280;40968;52.342;5.528;2023-04-27T00:09:06;102066.97;;;4.55;65.02
43161;BME280;40968;52.342;5.528;2023-04-27T00:11:33;102175.13;;;5.09;65.33
43161;BME280;40968;52.342;5.528;2023-04-27T00:13:59;101695.06;;;2.28;65.25
43161;BME280;40968;52.342;5.528;2023-04-27T00:16:26;102170.03;;;5.03;65.30
43161;BME280;40968;52.342;5.528;2023-04-27T00:18:52;102049.44;;;4.18;65.29
43161;BME280;40968;52.342;5.528;2023-04-27T00:21:20;102165.84;;;4.94;65.36
43161;BME280;40968;52.342;5.528;2023-04-27T00:23:48;102158.97;;;4.87;65.15
43161;BME280;40968;52.342;5.528;2023-04-27T00:26:14;102193.59;;;4.84;65.26
43161;BME280;40968;52.342;5.528;2023-04-27T00:28:41;102103.63;;;4.42;65.55
43161;BME280;40968;52.342;5.528;2023-04-27T00:31:07;101787.78;;;2.58;65.29
43161;BME280;40968;52.342;5.528;2023-04-27T00:33:34;101922.78;;;3.28;65.62
43161;BME280;40968;52.342;5.528;2023-04-27T00:36:01;102129.06;;;4.49;65.52
43161;BME280;40968;52.342;5.528;2023-04-27T00:38:27;102163.06;;;4.68;65.78
43161;BME280;40968;52.342;5.528;2023-04-27T00:41:01;101895.13;;;3.06;65.43
43161;BME280;40968;52.342;5.528;2023-04-27T00:43:27;102090.13;;;4.18;65.68
43161;BME280;40968;52.342;5.528;2023-04-27T00:45:54;102156.28;;;4.57;65.74
43161;BME280;40968;52.342;5.528;2023-04-27T00:48:21;102155.41;;;4.57;66.69
43161;BME280;40968;52.342;5.528;2023-04-27T00:50:48;102107.44;;;4.31;67.65
43161;BME280;40968;52.342;5.528;2023-04-27T00:53:15;102151.75;;;4.61;67.51
43161;BME280;40968;52.342;5.528;2023-04-27T00:55:42;102009.22;;;3.69;67.50
43161;BME280;40968;52.342;5.528;2023-04-27T00:58:09;102047.59;;;3.88;66.85
43161;BME280;40968;52.342;5.528;2023-04-27T01:00:37;102074.72;;;3.98;66.41
43161;BME280;40968;52.342;5.528;2023-04-27T01:03:04;102082.66;;;4.00;66.35
43161;BME280;40968;52.342;5.528;2023-04-27T01:05:32;102159.41;;;4.40;66.35
43161;BME280;40968;52.342;5.528;2023-04-27T01:07:59;102158.63;;;4.37;66.43
43161;BME280;40968;52.342;5.528;2023-04-27T01:10:27;102044.69;;;3.64;66.53
43161;BME280;40968;52.342;5.528;2023-04-27T01:12:53;102172.94;;;4.29;66.50
43161;BME280;40968;52.342;5.528;2023-04-27T01:15:21;102050.03;;;3.63;68.31
43161;BME280;40968;52.342;5.528;2023-04-27T01:17:48;102154.50;;;4.25;68.87
43161;BME280;40968;52.342;5.528;2023-04-27T01:20:15;102169.38;;;4.30;68.17
43161;BME280;40968;52.342;5.528;2023-04-27T01:22:41;102111.84;;;4.00;68.19
43161;BME280;40968;52.342;5.528;2023-04-27T01:25:09;102136.38;;;4.08;67.98
43161;BME280;40968;52.342;5.528;2023-04-27T01:27:36;102166.09;;;4.22;68.25
43161;BME280;40968;52.342;5.528;2023-04-27T01:30:04;102044.41;;;3.41;67.03
43161;BME280;40968;52.342;5.528;2023-04-27T01:32:31;102174.28;;;4.13;66.97
43161;BME280;40968;52.342;5.528;2023-04-27T01:34:57;102108.97;;;3.73;67.30
43161;BME280;40968;52.342;5.528;2023-04-27T01:37:25;101997.53;;;3.07;68.09
43161;BME280;40968;52.342;5.528;2023-04-27T01:39:52;102103.63;;;3.74;67.74
43161;BME280;40968;52.342;5.528;2023-04-27T01:42:19;102096.72;;;3.69;68.28
43161;BME280;40968;52.342;5.528;2023-04-27T01:44:47;102163.88;;;4.05;68.39
43161;BME280;40968;52.342;5.528;2023-04-27T01:47:14;102042.03;;;3.28;67.89
43161;BME280;40968;52.342;5.528;2023-04-27T01:49:40;102097.84;;;3.58;67.85
43161;BME280;40968;52.342;5.528;2023-04-27T01:52:08;102134.41;;;3.81;68.36
43161;BME280;40968;52.342;5.528;2023-04-27T01:54:35;101874.09;;;2.27;68.92
43161;BME280;40968;52.342;5.528;2023-04-27T01:57:01;102074.31;;;3.46;69.20
43161;BME280;40968;52.342;5.528;2023-04-27T01:59:29;102148.22;;;3.94;69.66
43161;BME280;40968;52.342;5.528;2023-04-27T02:01:56;102136.78;;;3.92;69.10
43161;BME280;40968;52.342;5.528;2023-04-27T02:04:22;102051.50;;;3.39;68.69
43161;BME280;40968;52.342;5.528;2023-04-27T02:06:49;102049.84;;;3.35;68.92
43161;BME280;40968;52.342;5.528;2023-04-27T02:09:15;102130.16;;;3.74;68.26
43161;BME280;40968;52.342;5.528;2023-04-27T02:11:42;102141.47;;;3.81;68.14
43161;BME280;40968;52.342;5.528;2023-04-27T02:14:08;102086.81;;;3.39;68.02
43161;BME280;40968;52.342;5.528;2023-04-27T02:16:37;101997.28;;;2.80;68.84
43161;BME280;40968;52.342;5.528;2023-04-27T02:19:03;102055.41;;;3.22;68.69
43161;BME280;40968;52.342;5.528;2023-04-27T02:21:30;101951.75;;;2.64;70.39
43161;BME280;40968;52.342;5.528;2023-04-27T02:23:57;102140.72;;;3.76;69.28
43161;BME280;40968;52.342;5.528;2023-04-27T02:26:23;102144.44;;;3.69;68.89
43161;BME280;40968;52.342;5.528;2023-04-27T02:28:54;102035.59;;;3.03;68.98
43161;BME280;40968;52.342;5.528;2023-04-27T02:31:21;102165.88;;;3.59;68.39
43161;BME280;40968;52.342;5.528;2023-04-27T02:33:49;102027.06;;;2.90;69.07
43161;BME280;40968;52.342;5.528;2023-04-27T02:36:15;102081.09;;;3.20;69.60
43161;BME280;40968;52.342;5.528;2023-04-27T02:38:42;102075.13;;;3.12;68.91
43161;BME280;40968;52.342;5.528;2023-04-27T02:41:09;102089.06;;;3.20;69.02
43161;BME280;40968;52.342;5.528;2023-04-27T02:43:36;102069.97;;;3.06;68.62
43161;BME280;40968;52.342;5.528;2023-04-27T02:46:03;102015.06;;;2.73;69.43
43161;BME280;40968;52.342;5.528;2023-04-27T02:48:30;102029.03;;;2.80;69.03
43161;BME280;40968;52.342;5.528;2023-04-27T02:50:58;101799.28;;;1.42;69.03
43161;BME280;40968;52.342;5.528;2023-04-27T02:53:24;102105.75;;;3.22;69.11
43161;BME280;40968;52.342;5.528;2023-04-27T02:55:51;101980.28;;;2.51;69.12
43161;BME280;40968;52.342;5.528;2023-04-27T02:58:18;102084.13;;;3.03;69.08
43161;BME280;40968;52.342;5.528;2023-04-27T03:00:44;102115.47;;;3.23;68.96
43161;BME280;40968;52.342;5.528;2023-04-27T03:03:11;102114.66;;;3.21;69.53
43161;BME280;40968;52.342;5.528;2023-04-27T03:05:37;102032.78;;;2.71;70.01
43161;BME280;40968;52.342;5.528;2023-04-27T03:08:05;102080.75;;;2.96;69.92
43161;BME280;40968;52.342;5.528;2023-04-27T03:10:32;102118.22;;;3.19;70.34
43161;BME280;40968;52.342;5.528;2023-04-27T03:12:58;102126.22;;;3.17;70.17
43161;BME280;40968;52.342;5.528;2023-04-27T03:15:25;101979.06;;;2.27;70.54
43161;BME280;40968;52.342;5.528;2023-04-27T03:17:51;101784.84;;;1.15;70.38
43161;BME280;40968;52.342;5.528;2023-04-27T03:20:18;101959.03;;;2.15;69.93
43161;BME280;40968;52.342;5.528;2023-04-27T03:22:45;102069.56;;;2.84;70.35
43161;BME280;40968;52.342;5.528;2023-04-27T03:25:13;102032.31;;;2.52;70.48
43161;BME280;40968;52.342;5.528;2023-04-27T03:27:39;102135.19;;;3.10;70.97
43161;BME280;40968;52.342;5.528;2023-04-27T03:30:08;102070.72;;;2.72;70.73
43161;BME280;40968;52.342;5.528;2023-04-27T03:32:35;102050.75;;;2.55;70.44
43161;BME280;40968;52.342;5.528;2023-04-27T03:35:02;102004.50;;;2.32;71.24
43161;BME280;40968;52.342;5.528;2023-04-27T03:37:29;102103.81;;;2.91;70.53
43161;BME280;40968;52.342;5.528;2023-04-27T03:39:57;102127.50;;;2.99;70.41
43161;BME280;40968;52.342;5.528;2023-04-27T03:42:24;101970.78;;;2.00;69.52
43161;BME280;40968;52.342;5.528;2023-04-27T03:44:51;102131.22;;;2.90;69.98
43161;BME280;40968;52.342;5.528;2023-04-27T03:47:18;102058.91;;;2.46;71.29
43161;BME280;40968;52.342;5.528;2023-04-27T03:49:45;102057.03;;;2.51;71.56
43161;BME280;40968;52.342;5.528;2023-04-27T03:52:11;101997.69;;;2.21;72.36
43161;BME280;40968;52.342;5.528;2023-04-27T03:54:38;102136.34;;;2.98;71.88
43161;BME280;40968;52.342;5.528;2023-04-27T03:57:05;102041.38;;;2.40;71.26
43161;BME280;40968;52.342;5.528;2023-04-27T03:59:33;102139.06;;;2.93;71.52
43161;BME280;40968;52.342;5.528;2023-04-27T04:01:59;102132.97;;;2.91;72.34
43161;BME280;40968;52.342;5.528;2023-04-27T04:04:26;102135.59;;;2.91;72.67
43161;BME280;40968;52.342;5.528;2023-04-27T04:06:53;102104.34;;;2.67;72.50
43161;BME280;40968;52.342;5.528;2023-04-27T04:09:19;102148.91;;;2.88;71.55
43161;BME280;40968;52.342;5.528;2023-04-27T04:11:46;102144.59;;;2.82;72.03
43161;BME280;40968;52.342;5.528;2023-04-27T04:14:12;102009.34;;;2.10;73.37
43161;BME280;40968;52.342;5.528;2023-04-27T04:16:40;101851.72;;;1.17;72.04
43161;BME280;40968;52.342;5.528;2023-04-27T04:19:07;102087.09;;;2.47;71.22
43161;BME280;40968;52.342;5.528;2023-04-27T04:21:34;101982.56;;;1.82;70.54
43161;BME280;40968;52.342;5.528;2023-04-27T04:24:00;102140.44;;;2.71;71.38
43161;BME280;40968;52.342;5.528;2023-04-27T04:26:27;102094.31;;;2.40;70.69
43161;BME280;40968;52.342;5.528;2023-04-27T04:28:54;102075.16;;;2.27;70.24
43161;BME280;40968;52.342;5.528;2023-04-27T04:31:21;102038.84;;;1.90;70.35
43161;BME280;40968;52.342;5.528;2023-04-27T04:33:49;102005.72;;;1.71;71.56
43161;BME280;40968;52.342;5.528;2023-04-27T04:36:16;102115.53;;;2.36;72.01
43161;BME280;40968;52.342;5.528;2023-04-27T04:38:42;102164.53;;;2.58;71.04
43161;BME280;40968;52.342;5.528;2023-04-27T04:41:09;102162.84;;;2.54;70.68
43161;BME280;40968;52.342;5.528;2023-04-27T04:43:35;102132.47;;;2.28;70.73
43161;BME280;40968;52.342;5.528;2023-04-27T04:46:02;102177.94;;;2.49;70.97
43161;BME280;40968;52.342;5.528;2023-04-27T04:48:29;102185.06;;;2.45;70.74
43161;BME280;40968;52.342;5.528;2023-04-27T04:50:56;102177.16;;;2.44;70.70
43161;BME280;40968;52.342;5.528;2023-04-27T04:53:23;102170.13;;;2.43;71.18
43161;BME280;40968;52.342;5.528;2023-04-27T04:55:50;102123.00;;;2.15;71.49
43161;BME280;40968;52.342;5.528;2023-04-27T04:58:17;102111.66;;;2.10;72.26
43161;BME280;40968;52.342;5.528;2023-04-27T05:00:43;102092.31;;;2.06;73.17
43161;BME280;40968;52.342;5.528;2023-04-27T05:03:10;102087.06;;;2.05;72.30
43161;BME280;40968;52.342;5.528;2023-04-27T05:05:36;102171.72;;;2.52;71.90
43161;BME280;40968;52.342;5.528;2023-04-27T05:08:04;102160.25;;;2.51;72.76
43161;BME280;40968;52.342;5.528;2023-04-27T05:10:31;102168.06;;;2.57;73.24
43161;BME280;40968;52.342;5.528;2023-04-27T05:12:57;102073.06;;;1.96;72.52
43161;BME280;40968;52.342;5.528;2023-04-27T05:15:24;102161.09;;;2.53;73.27
43161;BME280;40968;52.342;5.528;2023-04-27T05:17:50;101997.09;;;1.59;72.76
43161;BME280;40968;52.342;5.528;2023-04-27T05:20:18;102131.38;;;2.39;72.87
43161;BME280;40968;52.342;5.528;2023-04-27T05:22:44;102174.00;;;2.70;72.91
43161;BME280;40968;52.342;5.528;2023-04-27T05:25:13;102173.03;;;2.74;73.43
43161;BME280;40968;52.342;5.528;2023-04-27T05:27:39;101979.41;;;1.64;74.18
43161;BME280;40968;52.342;5.528;2023-04-27T05:30:07;101983.69;;;1.70;74.50
43161;BME280;40968;52.342;5.528;2023-04-27T05:32:35;102094.38;;;2.36;74.53
43161;BME280;40968;52.342;5.528;2023-04-27T05:35:02;102088.06;;;2.43;74.38
43161;BME280;40968;52.342;5.528;2023-04-27T05:37:29;102021.59;;;2.14;74.03
43161;BME280;40968;52.342;5.528;2023-04-27T05:39:56;102180.25;;;3.10;74.71
43161;BME280;40968;52.342;5.528;2023-04-27T05:42:23;102141.03;;;2.85;74.60
43161;BME280;40968;52.342;5.528;2023-04-27T05:44:50;102022.25;;;2.27;74.55
43161;BME280;40968;52.342;5.528;2023-04-27T05:47:17;101846.44;;;1.17;74.18
43161;BME280;40968;52.342;5.528;2023-04-27T05:49:43;102186.97;;;3.25;73.86
43161;BME280;40968;52.342;5.528;2023-04-27T05:52:10;102187.84;;;3.25;73.84
43161;BME280;40968;52.342;5.528;2023-04-27T05:54:36;102186.88;;;3.29;73.81
43161;BME280;40968;52.342;5.528;2023-04-27T05:57:03;102091.78;;;2.78;73.93
43161;BME280;40968;52.342;5.528;2023-04-27T05:59:31;102189.41;;;3.36;75.11
43161;BME280;40968;52.342;5.528;2023-04-27T06:01:58;102185.63;;;3.46;75.53
43161;BME280;40968;52.342;5.528;2023-04-27T06:04:24;102136.00;;;3.13;74.85
43161;BME280;40968;52.342;5.528;2023-04-27T06:06:51;102185.25;;;3.61;74.68
43161;BME280;40968;52.342;5.528;2023-04-27T06:09:17;102103.19;;;3.19;74.22
43161;BME280;40968;52.342;5.528;2023-04-27T06:11:44;102126.75;;;3.33;73.97
43161;BME280;40968;52.342;5.528;2023-04-27T06:14:11;102189.34;;;3.76;73.98
43161;BME280;40968;52.342;5.528;2023-04-27T06:16:39;102187.22;;;3.91;73.80
43161;BME280;40968;52.342;5.528;2023-04-27T06:19:06;102146.97;;;3.73;73.97
43161;BME280;40968;52.342;5.528;2023-04-27T06:21:33;102193.00;;;4.07;72.96
43161;BME280;40968;52.342;5.528;2023-04-27T06:24:00;102149.38;;;3.84;73.05
43161;BME280;40968;52.342;5.528;2023-04-27T06:26:27;102150.09;;;3.91;72.62
43161;BME280;40968;52.342;5.528;2023-04-27T06:28:53;102089.91;;;3.58;71.29
43161;BME280;40968;52.342;5.528;2023-04-27T06:31:20;102194.44;;;4.20;71.41
43161;BME280;40968;52.342;5.528;2023-04-27T06:33:48;102190.88;;;4.21;71.22
43161;BME280;40968;52.342;5.528;2023-04-27T06:36:15;102112.53;;;3.72;71.18
43161;BME280;40968;52.342;5.528;2023-04-27T06:38:41;102199.50;;;4.29;71.08
43161;BME280;40968;52.342;5.528;2023-04-27T06:41:08;102109.53;;;3.86;70.88
43161;BME280;40968;52.342;5.528;2023-04-27T06:43:35;102013.72;;;3.30;71.20
43161;BME280;40968;52.342;5.528;2023-04-27T06:46:01;102194.75;;;4.42;71.59
43161;BME280;40968;52.342;5.528;2023-04-27T06:48:28;101916.94;;;2.81;71.29
43161;BME280;40968;52.342;5.528;2023-04-27T06:50:56;102183.88;;;4.52;71.34
43161;BME280;40968;52.342;5.528;2023-04-27T06:53:22;102181.00;;;4.59;71.06
43161;BME280;40968;52.342;5.528;2023-04-27T06:55:49;101969.25;;;3.42;70.76
43161;BME280;40968;52.342;5.528;2023-04-27T06:58:15;102191.47;;;4.65;70.19
43161;BME280;40968;52.342;5.528;2023-04-27T07:00:42;102176.97;;;4.77;69.29
43161;BME280;40968;52.342;5.528;2023-04-27T07:03:09;102114.97;;;4.47;68.65
43161;BME280;40968;52.342;5.528;2023-04-27T07:05:35;102182.81;;;4.90;67.91
43161;BME280;40968;52.342;5.528;2023-04-27T07:08:03;102180.88;;;4.95;67.45
43161;BME280;40968;52.342;5.528;2023-04-27T07:10:30;102138.06;;;4.75;67.05
43161;BME280;40968;52.342;5.528;2023-04-27T07:12:57;101915.97;;;3.53;67.62
43161;BME280;40968;52.342;5.528;2023-04-27T07:15:23;102035.13;;;4.23;66.82
43161;BME280;40968;52.342;5.528;2023-04-27T07:17:51;102134.13;;;4.88;66.66
43161;BME280;40968;52.342;5.528;2023-04-27T07:20:18;102082.69;;;4.61;65.95
43161;BME280;40968;52.342;5.528;2023-04-27T07:22:48;102190.41;;;5.32;65.10
43161;BME280;40968;52.342;5.528;2023-04-27T07:25:16;102099.84;;;4.80;65.14
43161;BME280;40968;52.342;5.528;2023-04-27T07:27:43;102162.34;;;5.22;65.96
43161;BME280;40968;52.342;5.528;2023-04-27T07:30:10;102171.91;;;5.29;65.34
43161;BME280;40968;52.342;5.528;2023-04-27T07:32:38;102202.94;;;5.57;65.47
43161;BME280;40968;52.342;5.528;2023-04-27T07:35:06;102095.84;;;4.95;65.37
43161;BME280;40968;52.342;5.528;2023-04-27T07:37:33;102166.91;;;5.47;63.57
43161;BME280;40968;52.342;5.528;2023-04-27T07:40:00;102203.97;;;5.80;62.99
43161;BME280;40968;52.342;5.528;2023-04-27T07:42:31;102198.34;;;5.89;61.87
43161;BME280;40968;52.342;5.528;2023-04-27T07:44:58;102205.16;;;6.00;60.55
43161;BME280;40968;52.342;5.528;2023-04-27T07:47:25;102203.94;;;6.10;61.14
43161;BME280;40968;52.342;5.528;2023-04-27T07:49:52;102115.88;;;5.62;59.13
43161;BME280;40968;52.342;5.528;2023-04-27T07:52:20;102176.41;;;6.11;59.37
43161;BME280;40968;52.342;5.528;2023-04-27T07:54:46;102110.91;;;5.78;58.46
43161;BME280;40968;52.342;5.528;2023-04-27T07:57:13;102226.94;;;6.38;60.32
43161;BME280;40968;52.342;5.528;2023-04-27T07:59:41;101845.84;;;4.23;60.47
43161;BME280;40968;52.342;5.528;2023-04-27T08:02:07;102124.41;;;6.01;59.46
43161;BME280;40968;52.342;5.528;2023-04-27T08:04:34;102087.44;;;5.91;57.41
43161;BME280;40968;52.342;5.528;2023-04-27T08:07:01;102185.16;;;6.65;57.54
43161;BME280;40968;52.342;5.528;2023-04-27T08:09:27;101920.03;;;5.09;57.15
43161;BME280;40968;52.342;5.528;2023-04-27T08:11:54;102186.41;;;6.80;56.72
43161;BME280;40968;52.342;5.528;2023-04-27T08:14:20;102186.16;;;6.86;55.62
43161;BME280;40968;52.342;5.528;2023-04-27T08:16:48;102090.34;;;6.36;55.98
43161;BME280;40968;52.342;5.528;2023-04-27T08:19:16;102191.66;;;7.05;56.31
43161;BME280;40968;52.342;5.528;2023-04-27T08:21:43;102032.31;;;6.20;55.62
43161;BME280;40968;52.342;5.528;2023-04-27T08:24:09;102149.16;;;7.02;54.69
43161;BME280;40968;52.342;5.528;2023-04-27T08:26:36;102158.28;;;7.19;54.47
43161;BME280;40968;52.342;5.528;2023-04-27T08:29:03;102183.81;;;7.48;54.83
43161;BME280;40968;52.342;5.528;2023-04-27T08:31:29;102091.34;;;7.03;53.52
43161;BME280;40968;52.342;5.528;2023-04-27T08:33:57;102126.72;;;7.30;53.29
43161;BME280;40968;52.342;5.528;2023-04-27T08:36:24;102187.19;;;7.74;52.99
43161;BME280;40968;52.342;5.528;2023-04-27T08:38:52;102183.38;;;7.81;52.59
43161;BME280;40968;52.342;5.528;2023-04-27T08:41:19;102187.41;;;7.91;52.50
43161;BME280;40968;52.342;5.528;2023-04-27T08:43:46;102188.78;;;8.00;52.85
43161;BME280;40968;52.342;5.528;2023-04-27T08:46:17;102187.53;;;8.09;52.64
43161;BME280;40968;52.342;5.528;2023-04-27T08:48:43;102185.41;;;8.17;52.08
43161;BME280;40968;52.342;5.528;2023-04-27T08:51:13;102190.34;;;8.26;52.08
43161;BME280;40968;52.342;5.528;2023-04-27T08:53:44;101886.97;;;6.60;51.62
43161;BME280;40968;52.342;5.528;2023-04-27T08:56:12;102187.66;;;8.49;51.38
43161;BME280;40968;52.342;5.528;2023-04-27T08:58:39;102166.53;;;8.42;50.01
43161;BME280;40968;52.342;5.528;2023-04-27T09:01:06;102191.47;;;8.63;50.53
43161;BME280;40968;52.342;5.528;2023-04-27T09:03:33;102064.47;;;7.94;49.67
43161;BME280;40968;52.342;5.528;2023-04-27T09:06:00;102185.13;;;8.85;49.81
43161;BME280;40968;52.342;5.528;2023-04-27T09:08:28;102124.00;;;8.58;47.88
43161;BME280;40968;52.342;5.528;2023-04-27T09:10:55;102064.56;;;8.33;49.06
43161;BME280;40968;52.342;5.528;2023-04-27T09:13:21;101995.84;;;7.96;48.35
43161;BME280;40968;52.342;5.528;2023-04-27T09:15:49;102181.25;;;9.11;47.24
43161;BME280;40968;52.342;5.528;2023-04-27T09:18:18;102146.19;;;8.99;48.59
43161;BME280;40968;52.342;5.528;2023-04-27T09:20:45;102178.50;;;9.32;48.16
43161;BME280;40968;52.342;5.528;2023-04-27T09:23:24;102100.81;;;8.97;47.91
43161;BME280;40968;52.342;5.528;2023-04-27T09:25:53;102175.88;;;9.50;48.12
43161;BME280;40968;52.342;5.528;2023-04-27T09:28:20;102171.91;;;9.58;47.30
43161;BME280;40968;52.342;5.528;2023-04-27T09:30:51;102149.72;;;9.56;47.50
43161;BME280;40968;52.342;5.528;2023-04-27T09:33:21;101999.72;;;8.86;48.38
43161;BME280;40968;52.342;5.528;2023-04-27T09:35:48;102002.75;;;8.98;47.42
43161;BME280;40968;52.342;5.528;2023-04-27T09:38:16;102143.75;;;9.86;47.25
43161;BME280;40968;52.342;5.528;2023-04-27T09:40:43;102109.56;;;9.74;47.28
43161;BME280;40968;52.342;5.528;2023-04-27T09:43:11;101849.13;;;8.32;47.29
43161;BME280;40968;52.342;5.528;2023-04-27T09:45:38;102014.84;;;9.41;46.84
43161;BME280;40968;52.342;5.528;2023-04-27T09:48:05;102119.66;;;10.04;46.70
43161;BME280;40968;52.342;5.528;2023-04-27T09:50:34;102109.66;;;10.07;46.67
43161;BME280;40968;52.342;5.528;2023-04-27T09:53:02;102110.50;;;10.25;47.28
43161;BME280;40968;52.342;5.528;2023-04-27T09:55:35;102181.91;;;10.61;46.62
43161;BME280;40968;52.342;5.528;2023-04-27T09:58:17;101921.38;;;9.38;45.97
43161;BME280;40968;52.342;5.528;2023-04-27T10:00:57;102087.97;;;10.47;45.87
43161;BME280;40968;52.342;5.528;2023-04-27T10:03:29;102155.16;;;10.93;45.69
43161;BME280;40968;52.342;5.528;2023-04-27T10:09:08;102115.53;;;10.99;44.91
43161;BME280;40968;52.342;5.528;2023-04-27T10:11:39;102111.72;;;11.03;44.54
43161;BME280;40968;52.342;5.528;2023-04-27T10:14:13;102074.88;;;10.90;44.46
43161;BME280;40968;52.342;5.528;2023-04-27T10:16:48;101801.06;;;9.37;43.49
43161;BME280;40968;52.342;5.528;2023-04-27T10:19:15;102122.38;;;11.36;44.17
43161;BME280;40968;52.342;5.528;2023-04-27T10:21:52;101904.19;;;10.25;43.96
43161;BME280;40968;52.342;5.528;2023-04-27T10:24:30;102034.19;;;11.14;43.50
43161;BME280;40968;52.342;5.528;2023-04-27T10:27:00;102017.22;;;11.14;42.83
43161;BME280;40968;52.342;5.528;2023-04-27T10:29:36;101925.75;;;10.72;43.21
43161;BME280;40968;52.342;5.528;2023-04-27T10:32:10;101828.56;;;10.20;40.61
43161;BME280;40968;52.342;5.528;2023-04-27T10:34:37;102091.59;;;11.88;40.90
43161;BME280;40968;52.342;5.528;2023-04-27T10:37:05;102082.19;;;11.81;39.70
43161;BME280;40968;52.342;5.528;2023-04-27T10:39:34;102085.44;;;11.86;41.40
43161;BME280;40968;52.342;5.528;2023-04-27T10:42:01;101934.31;;;11.09;40.21
43161;BME280;40968;52.342;5.528;2023-04-27T10:44:30;102122.22;;;12.16;39.54
43161;BME280;40968;52.342;5.528;2023-04-27T10:46:59;102130.78;;;12.37;40.20
43161;BME280;40968;52.342;5.528;2023-04-27T10:49:26;102144.91;;;12.55;40.10
43161;BME280;40968;52.342;5.528;2023-04-27T10:51:56;102132.06;;;12.75;39.20
43161;BME280;40968;52.342;5.528;2023-04-27T10:54:26;102099.94;;;12.72;39.87
43161;BME280;40968;52.342;5.528;2023-04-27T10:56:53;101977.09;;;12.16;40.63
43161;BME280;40968;52.342;5.528;2023-04-27T10:59:20;102117.72;;;13.31;39.19
43161;BME280;40968;52.342;5.528;2023-04-27T11:01:47;102037.47;;;12.96;38.69
43161;BME280;40968;52.342;5.528;2023-04-27T11:04:16;102058.72;;;13.27;37.75
43161;BME280;40968;52.342;5.528;2023-04-27T11:06:44;102075.50;;;13.46;36.99
43161;BME280;40968;52.342;5.528;2023-04-27T11:09:11;102072.63;;;13.62;37.16
43161;BME280;40968;52.342;5.528;2023-04-27T11:11:42;102132.22;;;14.10;36.38
43161;BME280;40968;52.342;5.528;2023-04-27T11:14:13;102066.84;;;13.81;35.96
43161;BME280;40968;52.342;5.528;2023-04-27T11:16:45;101933.75;;;13.17;35.95
43161;BME280;40968;52.342;5.528;2023-04-27T11:19:11;102116.59;;;14.41;35.84
43161;BME280;40968;52.342;5.528;2023-04-27T11:21:39;102089.31;;;14.46;35.12
43161;BME280;40968;52.342;5.528;2023-04-27T11:24:07;102070.44;;;14.46;35.19
43161;BME280;40968;52.342;5.528;2023-04-27T11:26:34;102054.53;;;14.54;34.65
43161;BME280;40968;52.342;5.528;2023-04-27T11:29:02;102098.41;;;14.95;34.63
43161;BME280;40968;52.342;5.528;2023-04-27T11:31:38;102092.69;;;14.99;33.89
43161;BME280;40968;52.342;5.528;2023-04-27T11:34:06;102085.53;;;15.11;34.06
43161;BME280;40968;52.342;5.528;2023-04-27T11:36:32;102089.06;;;14.87;33.94
43161;BME280;40968;52.342;5.528;2023-04-27T11:39:00;101916.28;;;13.76;33.43
43161;BME280;40968;52.342;5.528;2023-04-27T11:41:34;102061.47;;;14.71;32.84
43161;BME280;40968;52.342;5.528;2023-04-27T11:44:05;102006.53;;;14.59;35.41
43161;BME280;40968;52.342;5.528;2023-04-27T11:46:34;102093.75;;;15.34;35.86
43161;BME280;40968;52.342;5.528;2023-04-27T11:49:02;102093.19;;;15.66;35.25
43161;BME280;40968;52.342;5.528;2023-04-27T11:51:30;102088.63;;;15.90;36.09
43161;BME280;40968;52.342;5.528;2023-04-27T11:54:02;102055.31;;;15.90;34.67
43161;BME280;40968;52.342;5.528;2023-04-27T11:56:33;102094.34;;;16.21;33.39
43161;BME280;40968;52.342;5.528;2023-04-27T11:59:00;102091.47;;;16.00;31.71
43161;BME280;40968;52.342;5.528;2023-04-27T12:01:27;102091.44;;;15.89;32.11
43161;BME280;40968;52.342;5.528;2023-04-27T12:03:53;102083.44;;;15.87;32.12
43161;BME280;40968;52.342;5.528;2023-04-27T12:06:23;102081.16;;;15.70;33.71
43161;BME280;40968;52.342;5.528;2023-04-27T12:08:50;102034.50;;;15.19;33.39
43161;BME280;40968;52.342;5.528;2023-04-27T12:11:18;102085.03;;;15.30;34.24
43161;BME280;40968;52.342;5.528;2023-04-27T12:13:45;102076.34;;;15.14;34.74
43161;BME280;40968;52.342;5.528;2023-04-27T12:16:12;101932.31;;;14.16;35.96
43161;BME280;40968;52.342;5.528;2023-04-27T12:18:39;102031.03;;;14.69;34.39
43161;BME280;40968;52.342;5.528;2023-04-27T12:21:06;102029.72;;;14.62;34.41
43161;BME280;40968;52.342;5.528;2023-04-27T12:23:32;101997.97;;;14.78;35.66
43161;BME280;40968;52.342;5.528;2023-04-27T12:25:59;102090.00;;;15.72;34.50
43161;BME280;40968;52.342;5.528;2023-04-27T12:28:27;101870.63;;;14.73;33.98
43161;BME280;40968;52.342;5.528;2023-04-27T12:30:54;102058.19;;;16.00;33.16
43161;BME280;40968;52.342;5.528;2023-04-27T12:33:21;102030.84;;;15.91;33.86
43161;BME280;40968;52.342;5.528;2023-04-27T12:35:47;102034.84;;;16.10;34.94
43161;BME280;40968;52.342;5.528;2023-04-27T12:38:14;102060.19;;;16.43;34.35
43161;BME280;40968;52.342;5.528;2023-04-27T12:40:41;102054.53;;;16.57;32.68
43161;BME280;40968;52.342;5.528;2023-04-27T12:43:07;101926.66;;;15.99;33.15
43161;BME280;40968;52.342;5.528;2023-04-27T12:45:36;102046.59;;;16.88;33.06
43161;BME280;40968;52.342;5.528;2023-04-27T12:48:03;102028.41;;;16.90;31.92
43161;BME280;40968;52.342;5.528;2023-04-27T12:50:30;102009.72;;;16.76;31.44
43161;BME280;40968;52.342;5.528;2023-04-27T12:52:57;101866.47;;;15.85;31.50
43161;BME280;40968;52.342;5.528;2023-04-27T12:55:24;102045.16;;;16.96;30.62
43161;BME280;40968;52.342;5.528;2023-04-27T12:57:50;102055.50;;;16.90;31.01
43161;BME280;40968;52.342;5.528;2023-04-27T13:00:17;102050.06;;;16.79;30.36
43161;BME280;40968;52.342;5.528;2023-04-27T13:02:46;102010.25;;;16.36;30.50